< < Back
Terminal Aerodrome Forecast


Current Version              Previous Versions:   1  2  3  4  5  6  7  8  9  

Terminal Aerodrome Forecast

070
FTUS42 KTAE 241720
TAFABY
TAF
KABY 241720Z 2418/2518 VRB04KT P6SM SCT050=



Latest METAR

291
SAUS70 KWBC 252000 RRC
MTRABY
METAR KABY 251953Z VRB06KT 10SM FEW055 33/19 A2999 RMK AO2 LTG DSNT W
SLP154 T03330189


USA.gov is the U.S. government's official web portal to all federal, state and local government web resources and services.